Saint Teresa, Florida
Current Conditions -  °F | °C
As of 11:53 AM on Thursday 27 Nov 2014 (Local Time) from KTLH Reporting Station
Clear Clear  
Wind Chill: 60°   Ceiling: Unl
Heat Index: 60°   Visibility: 10mi
Dew Point: 30°   Wind: 14mph
Humidity: 32%   Direction: 310°NW
Pressure: 30.31"   Gusts: NA
Location:  30.1572°N, 84.5437°W
Report Text: KTLH 271653Z 31012KT 10SM CLR 16/M01 A3031 RMK AO2 SLP263 T01561011 $
Loading
Personal Weather Stations






























Interactive Weather Map New forecast layout! Learn more

10-Day Weather Forecast

Advertisements
Track Severe Weather on mobile